createdAt,value
2023-03-06T00:00:16.521Z,2.08
2023-03-06T00:01:17.026Z,2.08
2023-03-06T00:02:16.435Z,2.09
2023-03-06T00:03:16.908Z,2.08
2023-03-06T00:04:16.420Z,2.09
2023-03-06T00:05:16.922Z,2.08
2023-03-06T00:06:16.442Z,2.08
2023-03-06T00:07:17.040Z,2.09
2023-03-06T00:08:16.543Z,2.10
2023-03-06T00:09:17.061Z,2.08
2023-03-06T00:10:16.582Z,2.08
2023-03-06T00:11:17.108Z,2.09
2023-03-06T00:12:16.921Z,2.10
2023-03-06T00:13:16.403Z,2.10
2023-03-06T00:14:16.939Z,2.10
2023-03-06T00:15:16.424Z,2.09
2023-03-06T00:16:16.985Z,2.08
2023-03-06T00:17:16.594Z,2.02
2023-03-06T00:18:17.099Z,2.01
2023-03-06T00:19:16.630Z,2.04
2023-03-06T00:20:17.135Z,2.04
2023-03-06T00:21:16.640Z,2.04
2023-03-06T00:22:17.249Z,1.99
2023-03-06T00:23:16.752Z,1.98
2023-03-06T00:24:17.255Z,1.98
2023-03-06T00:25:16.770Z,1.97
2023-03-06T00:26:17.277Z,1.94
2023-03-06T00:27:16.792Z,1.92
2023-03-06T00:28:17.296Z,1.92
2023-03-06T00:29:16.807Z,1.91
2023-03-06T00:30:16.377Z,1.89
2023-03-06T00:31:16.889Z,1.89
2023-03-06T00:32:16.551Z,1.89
2023-03-06T00:33:17.107Z,1.89
2023-03-06T00:34:16.609Z,1.87
2023-03-06T00:35:17.124Z,1.88
2023-03-06T00:36:16.659Z,1.88
2023-03-06T00:37:17.167Z,1.88
2023-03-06T00:38:16.712Z,1.91
2023-03-06T00:39:17.210Z,1.91
2023-03-06T00:40:16.697Z,1.89
2023-03-06T00:41:17.304Z,1.88
2023-03-06T00:42:16.631Z,1.89
2023-03-06T00:43:17.126Z,1.85
2023-03-06T00:44:16.612Z,1.85
2023-03-06T00:45:17.084Z,1.85
2023-03-06T00:46:16.595Z,1.84
2023-03-06T00:47:17.081Z,1.84
2023-03-06T00:48:16.673Z,1.85
2023-03-06T00:49:17.166Z,1.88
2023-03-06T00:50:16.730Z,1.87
2023-03-06T00:51:17.333Z,1.84
2023-03-06T00:52:16.902Z,1.80
2023-03-06T00:53:16.400Z,1.87
2023-03-06T00:54:16.919Z,1.88
2023-03-06T00:55:16.429Z,1.85
2023-03-06T00:56:18.911Z,1.89
2023-03-06T00:57:16.490Z,1.92
2023-03-06T00:58:16.973Z,1.91
2023-03-06T00:59:16.520Z,1.91
2023-03-06T01:00:16.994Z,1.92
2023-03-06T01:01:16.615Z,1.95
2023-03-06T01:02:17.359Z,1.94
2023-03-06T01:03:16.971Z,1.95
2023-03-06T01:04:16.474Z,1.92
2023-03-06T01:05:17.010Z,1.91
2023-03-06T01:06:16.523Z,1.92
2023-03-06T01:07:17.008Z,1.89
2023-03-06T01:08:16.494Z,1.87
2023-03-06T01:09:17.005Z,1.88
2023-03-06T01:10:16.486Z,1.85
2023-03-06T01:11:16.969Z,1.88
2023-03-06T01:12:16.735Z,1.88
2023-03-06T01:13:17.256Z,1.91
2023-03-06T01:14:16.728Z,1.91
2023-03-06T01:15:17.272Z,1.91
2023-03-06T01:16:16.870Z,1.88
2023-03-06T01:17:16.441Z,1.87
2023-03-06T01:18:16.937Z,1.87
2023-03-06T01:19:16.499Z,1.84
2023-03-06T01:20:16.990Z,1.85
2023-03-06T01:21:16.467Z,1.82
2023-03-06T01:22:17.288Z,1.84
2023-03-06T01:23:16.809Z,1.87
2023-03-06T01:24:16.309Z,1.87
2023-03-06T01:25:16.821Z,1.85
2023-03-06T01:26:16.315Z,1.89
2023-03-06T01:27:16.811Z,1.87
2023-03-06T01:28:16.309Z,1.87
2023-03-06T01:29:16.870Z,1.85
2023-03-06T01:30:16.409Z,1.81
2023-03-06T01:31:16.929Z,1.82
2023-03-06T01:32:16.504Z,1.81
2023-03-06T01:33:17.100Z,1.82
2023-03-06T01:34:16.616Z,1.84
2023-03-06T01:35:17.238Z,1.84
2023-03-06T01:36:16.873Z,1.85
2023-03-06T01:37:16.425Z,1.84
2023-03-06T01:38:16.951Z,1.84
2023-03-06T01:39:16.439Z,1.81
2023-03-06T01:40:16.935Z,1.82
2023-03-06T01:41:16.441Z,1.80
2023-03-06T01:42:16.928Z,1.80
2023-03-06T01:43:16.444Z,1.78
2023-03-06T01:44:16.950Z,1.77
2023-03-06T01:45:16.484Z,1.77
2023-03-06T01:46:16.990Z,1.80
2023-03-06T01:47:16.514Z,1.77
2023-03-06T01:48:17.021Z,1.77
2023-03-06T01:49:16.530Z,1.78
2023-03-06T01:50:17.033Z,1.77
2023-03-06T01:51:16.535Z,1.80
2023-03-06T01:52:16.398Z,1.78
2023-03-06T01:53:16.918Z,1.77
2023-03-06T01:54:16.387Z,1.75
2023-03-06T01:55:16.860Z,1.75
2023-03-06T01:56:16.323Z,1.74
2023-03-06T01:57:16.822Z,1.75
2023-03-06T01:58:16.328Z,1.77
2023-03-06T01:59:16.831Z,1.75
2023-03-06T02:00:16.353Z,1.75
2023-03-06T02:01:16.946Z,1.75
2023-03-06T02:02:17.272Z,1.74
2023-03-06T02:03:16.904Z,1.75
2023-03-06T02:04:16.417Z,1.77
2023-03-06T02:05:16.939Z,1.75
2023-03-06T02:06:16.500Z,1.78
2023-03-06T02:07:16.977Z,1.78
2023-03-06T02:08:16.490Z,1.80
2023-03-06T02:09:16.978Z,1.78
2023-03-06T02:10:16.463Z,1.78
2023-03-06T02:11:16.982Z,1.80
2023-03-06T02:12:16.880Z,1.81
2023-03-06T02:13:16.358Z,1.80
2023-03-06T02:14:16.933Z,1.81
2023-03-06T02:15:16.501Z,1.82
2023-03-06T02:16:16.999Z,1.81
2023-03-06T02:17:16.650Z,1.84
2023-03-06T02:18:17.157Z,1.87
2023-03-06T02:19:16.688Z,1.87
2023-03-06T02:20:17.184Z,1.85
2023-03-06T02:21:16.658Z,1.88
2023-03-06T02:22:16.428Z,1.88
2023-03-06T02:23:16.937Z,1.88
2023-03-06T02:24:16.438Z,1.85
2023-03-06T02:25:16.920Z,1.88
2023-03-06T02:26:16.406Z,1.87
2023-03-06T02:27:16.928Z,1.84
2023-03-06T02:28:16.426Z,1.87
2023-03-06T02:29:16.913Z,1.85
2023-03-06T02:30:16.429Z,1.87
2023-03-06T02:31:17.025Z,1.87
2023-03-06T02:32:17.339Z,1.89
2023-03-06T02:33:16.898Z,1.88
2023-03-06T02:34:16.524Z,1.88
2023-03-06T02:35:17.023Z,1.88
2023-03-06T02:36:16.499Z,1.88
2023-03-06T02:37:16.998Z,1.82
2023-03-06T02:38:16.470Z,1.82
2023-03-06T02:39:16.949Z,1.82
2023-03-06T02:40:16.473Z,1.82
2023-03-06T02:41:16.970Z,1.82
2023-03-06T02:42:17.256Z,1.81
2023-03-06T02:43:16.798Z,1.78
2023-03-06T02:44:17.275Z,1.78
2023-03-06T02:45:16.783Z,1.77
2023-03-06T02:46:17.306Z,1.77
2023-03-06T02:47:16.872Z,1.77
2023-03-06T02:48:16.389Z,1.78
2023-03-06T02:49:16.925Z,1.78
2023-03-06T02:50:16.390Z,1.78
2023-03-06T02:51:16.890Z,1.78
2023-03-06T02:52:17.267Z,1.78
2023-03-06T02:53:16.763Z,1.77
2023-03-06T02:54:17.248Z,1.78
2023-03-06T02:55:16.717Z,1.78
2023-03-06T02:56:17.246Z,1.78
2023-03-06T02:57:16.750Z,1.75
2023-03-06T02:58:17.223Z,1.71
2023-03-06T02:59:16.731Z,1.71
2023-03-06T03:00:17.234Z,1.71
2023-03-06T03:01:16.784Z,1.78
2023-03-06T03:02:16.631Z,1.77
2023-03-06T03:03:17.166Z,1.77
2023-03-06T03:04:16.693Z,1.75
2023-03-06T03:05:17.216Z,1.77
2023-03-06T03:06:16.694Z,1.75
2023-03-06T03:07:17.176Z,1.80
2023-03-06T03:08:16.684Z,1.77
2023-03-06T03:09:17.195Z,1.81
2023-03-06T03:10:16.684Z,1.81
2023-03-06T03:11:17.210Z,1.81
2023-03-06T03:12:16.629Z,1.80
2023-03-06T03:13:17.103Z,1.81
2023-03-06T03:14:16.627Z,1.80
2023-03-06T03:15:17.147Z,1.78
2023-03-06T03:16:16.755Z,1.78
2023-03-06T03:17:16.385Z,1.75
2023-03-06T03:18:16.884Z,1.75
2023-03-06T03:19:16.361Z,1.74
2023-03-06T03:20:16.891Z,1.73
2023-03-06T03:21:16.377Z,1.74
2023-03-06T03:22:17.083Z,1.71
2023-03-06T03:23:16.565Z,1.69
2023-03-06T03:24:17.097Z,1.67
2023-03-06T03:25:16.665Z,1.69
2023-03-06T03:26:17.214Z,1.70
2023-03-06T03:27:16.708Z,1.67
2023-03-06T03:28:17.201Z,1.67
2023-03-06T03:29:16.691Z,1.69
2023-03-06T03:30:17.214Z,1.69
2023-03-06T03:31:16.770Z,1.69
2023-03-06T03:32:16.426Z,1.69
2023-03-06T03:33:16.955Z,1.69
2023-03-06T03:34:16.456Z,1.66
2023-03-06T03:35:16.972Z,1.64
2023-03-06T03:36:16.465Z,1.61
2023-03-06T03:37:16.928Z,1.63
2023-03-06T03:38:16.433Z,1.63
2023-03-06T03:39:16.953Z,1.64
2023-03-06T03:40:16.476Z,1.67
2023-03-06T03:41:16.970Z,1.69
2023-03-06T03:42:16.616Z,1.70
2023-03-06T03:43:17.159Z,1.67
2023-03-06T03:44:16.661Z,1.70
2023-03-06T03:45:17.146Z,1.69
2023-03-06T03:46:16.675Z,1.73
2023-03-06T03:47:17.195Z,1.75
2023-03-06T03:48:16.700Z,1.70
2023-03-06T03:49:17.190Z,1.70
2023-03-06T03:50:16.699Z,1.70
2023-03-06T03:51:17.244Z,1.69
2023-03-06T03:52:16.653Z,1.70
2023-03-06T03:53:17.180Z,1.69
2023-03-06T03:54:16.698Z,1.73
2023-03-06T03:55:17.234Z,1.70
2023-03-06T03:56:16.737Z,1.64
2023-03-06T03:57:17.230Z,1.66
2023-03-06T03:58:16.742Z,1.66
2023-03-06T03:59:17.258Z,1.69
2023-03-06T04:00:16.791Z,1.66
2023-03-06T04:01:17.353Z,1.67
2023-03-06T04:02:16.792Z,1.69
2023-03-06T04:03:16.431Z,1.69
2023-03-06T04:04:16.949Z,1.69
2023-03-06T04:05:16.471Z,1.67
2023-03-06T04:06:16.975Z,1.69
2023-03-06T04:07:16.492Z,1.66
2023-03-06T04:08:17.001Z,1.66
2023-03-06T04:09:16.700Z,1.66
2023-03-06T04:10:17.229Z,1.63
2023-03-06T04:11:16.755Z,1.64
2023-03-06T04:12:16.662Z,1.64
2023-03-06T04:13:17.160Z,1.67
2023-03-06T04:14:16.642Z,1.66
2023-03-06T04:15:17.132Z,1.63
2023-03-06T04:16:16.636Z,1.63
2023-03-06T04:17:17.153Z,1.59
2023-03-06T04:18:16.651Z,1.56
2023-03-06T04:19:17.155Z,1.56
2023-03-06T04:20:16.653Z,1.56
2023-03-06T04:21:17.206Z,1.50
2023-03-06T04:22:16.508Z,1.52
2023-03-06T04:23:16.988Z,1.53
2023-03-06T04:24:16.505Z,1.49
2023-03-06T04:25:16.982Z,1.52
2023-03-06T04:26:16.480Z,1.52
2023-03-06T04:27:16.983Z,1.50
2023-03-06T04:28:16.440Z,1.47
2023-03-06T04:29:16.972Z,1.49
2023-03-06T04:30:16.464Z,1.50
2023-03-06T04:31:16.966Z,1.52
2023-03-06T04:32:16.782Z,1.53
2023-03-06T04:33:17.215Z,1.54
2023-03-06T04:34:16.740Z,1.52
2023-03-06T04:35:17.301Z,1.53
2023-03-06T04:36:16.880Z,1.54
2023-03-06T04:37:16.373Z,1.52
2023-03-06T04:38:16.903Z,1.50
2023-03-06T04:39:16.402Z,1.53
2023-03-06T04:40:16.911Z,1.53
2023-03-06T04:41:16.521Z,1.50
2023-03-06T04:42:16.910Z,1.50
2023-03-06T04:43:16.404Z,1.49
2023-03-06T04:44:16.916Z,1.45
2023-03-06T04:45:16.416Z,1.43
2023-03-06T04:46:16.896Z,1.45
2023-03-06T04:47:18.764Z,1.43
2023-03-06T04:48:16.840Z,1.43
2023-03-06T04:49:16.353Z,1.45
2023-03-06T04:50:16.864Z,1.49
2023-03-06T04:51:16.356Z,1.50
2023-03-06T04:52:16.923Z,1.50
2023-03-06T04:53:16.425Z,1.49
2023-03-06T04:54:18.924Z,1.46
2023-03-06T04:55:16.595Z,1.45
2023-03-06T04:56:17.103Z,1.43
2023-03-06T04:57:16.605Z,1.46
2023-03-06T04:58:17.104Z,1.45
2023-03-06T04:59:16.645Z,1.45
2023-03-06T05:00:17.143Z,1.43
2023-03-06T05:01:16.682Z,1.46
2023-03-06T05:02:17.316Z,1.47
2023-03-06T05:03:16.850Z,1.47
2023-03-06T05:04:16.371Z,1.46
2023-03-06T05:05:16.877Z,1.47
2023-03-06T05:06:16.373Z,1.49
2023-03-06T05:07:16.860Z,1.47
2023-03-06T05:08:16.375Z,1.50
2023-03-06T05:09:16.881Z,1.49
2023-03-06T05:10:16.416Z,1.49
2023-03-06T05:11:16.986Z,1.49
2023-03-06T05:12:16.425Z,1.46
2023-03-06T05:13:16.924Z,1.47
2023-03-06T05:14:16.435Z,1.46
2023-03-06T05:15:16.953Z,1.46
2023-03-06T05:16:16.520Z,1.47
2023-03-06T05:17:17.040Z,1.46
2023-03-06T05:18:16.527Z,1.47
2023-03-06T05:19:17.035Z,1.49
2023-03-06T05:20:16.570Z,1.49
2023-03-06T05:21:17.116Z,1.49
2023-03-06T05:22:16.450Z,1.47
2023-03-06T05:23:16.946Z,1.47
2023-03-06T05:24:16.451Z,1.49
2023-03-06T05:25:16.924Z,1.49
2023-03-06T05:26:16.422Z,1.49
2023-03-06T05:27:17.041Z,1.45
2023-03-06T05:28:16.522Z,1.47
2023-03-06T05:29:16.999Z,1.45
2023-03-06T05:30:16.504Z,1.46
2023-03-06T05:31:17.086Z,1.47
2023-03-06T05:32:16.796Z,1.47
2023-03-06T05:33:16.557Z,1.50
2023-03-06T05:34:17.062Z,1.49
2023-03-06T05:35:16.595Z,1.50
2023-03-06T05:36:17.192Z,1.50
2023-03-06T05:37:16.712Z,1.47
2023-03-06T05:38:16.879Z,1.52
2023-03-06T05:39:16.424Z,1.53
2023-03-06T05:40:16.959Z,1.53
2023-03-06T05:41:16.591Z,1.54
2023-03-06T05:42:17.098Z,1.53
2023-03-06T05:43:16.586Z,1.54
2023-03-06T05:44:17.079Z,1.52
2023-03-06T05:45:16.567Z,1.50
2023-03-06T05:46:17.125Z,1.53
2023-03-06T05:47:16.735Z,1.52
2023-03-06T05:48:17.217Z,1.47
2023-03-06T05:49:16.710Z,1.49
2023-03-06T05:50:17.242Z,1.50
2023-03-06T05:51:16.749Z,1.50
2023-03-06T05:52:16.612Z,1.50
2023-03-06T05:53:17.101Z,1.52
2023-03-06T05:54:16.626Z,1.54
2023-03-06T05:55:17.121Z,1.59
2023-03-06T05:56:16.613Z,1.59
2023-03-06T05:57:17.138Z,1.56
2023-03-06T05:58:16.651Z,1.53
2023-03-06T05:59:17.159Z,1.49
2023-03-06T06:00:16.668Z,1.49
2023-03-06T06:01:17.172Z,1.50
2023-03-06T06:02:16.668Z,1.49
2023-03-06T06:03:17.247Z,1.49
2023-03-06T06:04:16.797Z,1.50
2023-03-06T06:05:17.321Z,1.50
2023-03-06T06:06:16.814Z,1.52
2023-03-06T06:07:16.315Z,1.53
2023-03-06T06:08:16.819Z,1.54
2023-03-06T06:09:16.290Z,1.49
2023-03-06T06:10:16.823Z,1.52
2023-03-06T06:11:16.298Z,1.50
2023-03-06T06:12:17.248Z,1.50
2023-03-06T06:13:16.736Z,1.53
2023-03-06T06:14:17.236Z,1.50
2023-03-06T06:15:16.769Z,1.49
2023-03-06T06:16:17.374Z,1.47
2023-03-06T06:17:16.993Z,1.45
2023-03-06T06:18:16.488Z,1.45
2023-03-06T06:19:17.002Z,1.47
2023-03-06T06:20:16.493Z,1.50
2023-03-06T06:21:16.989Z,1.50
2023-03-06T06:22:16.402Z,1.49
2023-03-06T06:23:16.886Z,1.50
2023-03-06T06:24:16.362Z,1.50
2023-03-06T06:25:16.829Z,1.53
2023-03-06T06:26:16.337Z,1.53
2023-03-06T06:27:16.840Z,1.54
2023-03-06T06:28:16.361Z,1.53
2023-03-06T06:29:16.857Z,1.54
2023-03-06T06:30:16.359Z,1.56
2023-03-06T06:31:16.879Z,1.54
2023-03-06T06:32:17.255Z,1.60
2023-03-06T06:33:16.811Z,1.60
2023-03-06T06:34:17.296Z,1.60
2023-03-06T06:35:16.797Z,1.60
2023-03-06T06:36:17.316Z,1.60
2023-03-06T06:37:16.809Z,1.59
2023-03-06T06:38:17.283Z,1.61
2023-03-06T06:39:16.772Z,1.61
2023-03-06T06:40:17.261Z,1.69
2023-03-06T06:41:39.169Z,1.71
2023-03-06T06:42:31.350Z,1.75
2023-03-06T06:43:16.427Z,1.75
2023-03-06T06:44:16.914Z,1.78
2023-03-06T06:45:16.416Z,1.84
2023-03-06T06:46:49.899Z,1.81
2023-03-06T06:47:25.022Z,1.81
2023-03-06T06:48:17.785Z,1.85
2023-03-06T06:49:16.614Z,1.92
2023-03-06T06:50:17.128Z,1.95
2023-03-06T06:51:16.612Z,1.95
2023-03-06T06:52:16.922Z,1.94
2023-03-06T06:53:16.397Z,1.92
2023-03-06T06:54:16.892Z,1.89
2023-03-06T06:55:16.372Z,1.92
2023-03-06T06:56:16.891Z,1.95
2023-03-06T06:57:16.432Z,1.97
2023-03-06T06:58:16.943Z,1.97
2023-03-06T06:59:17.564Z,1.94
2023-03-06T07:00:17.166Z,1.94
2023-03-06T07:01:16.689Z,1.97
2023-03-06T07:02:17.031Z,1.98
2023-03-06T07:03:16.523Z,1.99
2023-03-06T07:04:17.100Z,1.95
2023-03-06T07:05:16.696Z,1.98
2023-03-06T07:06:17.207Z,1.97
2023-03-06T07:07:16.685Z,1.98
2023-03-06T07:08:17.203Z,2.02
2023-03-06T07:09:16.767Z,2.04
2023-03-06T07:10:18.890Z,1.98
2023-03-06T07:11:16.493Z,1.97
2023-03-06T07:12:17.064Z,1.97
2023-03-06T07:13:16.557Z,1.95
2023-03-06T07:14:17.074Z,1.95
2023-03-06T07:15:16.586Z,1.98
2023-03-06T07:16:17.137Z,1.99
2023-03-06T07:17:16.766Z,1.99
2023-03-06T07:18:17.264Z,2.02
2023-03-06T07:19:16.767Z,2.04
2023-03-06T07:20:17.244Z,2.06
2023-03-06T07:21:16.730Z,2.06
2023-03-06T07:22:16.415Z,2.01
2023-03-06T07:23:16.927Z,2.02
2023-03-06T07:24:16.431Z,2.05
2023-03-06T07:25:16.964Z,2.06
2023-03-06T07:26:16.459Z,2.08
2023-03-06T07:27:16.968Z,2.08
2023-03-06T07:28:18.530Z,2.06
2023-03-06T07:29:17.080Z,2.08
2023-03-06T07:30:16.630Z,2.06
2023-03-06T07:31:17.146Z,2.09
2023-03-06T07:32:16.742Z,2.10
2023-03-06T07:33:16.312Z,2.09
2023-03-06T07:34:16.849Z,2.10
2023-03-06T07:35:20.004Z,2.19
2023-03-06T07:36:16.430Z,2.20
2023-03-06T07:37:16.973Z,2.20
2023-03-06T07:38:16.468Z,2.22
2023-03-06T07:39:17.010Z,2.20
2023-03-06T07:40:16.502Z,2.23
2023-03-06T07:41:16.994Z,2.23
2023-03-06T07:42:16.450Z,2.26
2023-03-06T07:43:19.285Z,2.30
2023-03-06T07:44:17.203Z,2.26
2023-03-06T07:45:16.674Z,2.28
2023-03-06T07:46:17.294Z,2.32
2023-03-06T07:47:16.956Z,2.29
2023-03-06T07:48:16.450Z,2.30
2023-03-06T07:49:16.951Z,2.32
2023-03-06T07:50:16.457Z,2.32
2023-03-06T07:51:16.971Z,2.36
2023-03-06T07:52:16.863Z,2.33
2023-03-06T07:53:16.397Z,2.42
2023-03-06T07:54:16.949Z,2.40
2023-03-06T07:55:16.482Z,2.50
2023-03-06T07:56:16.999Z,2.44
2023-03-06T07:57:16.514Z,2.47
2023-03-06T07:58:16.998Z,2.44
2023-03-06T07:59:16.516Z,2.50
2023-03-06T08:00:17.044Z,2.51
2023-03-06T08:01:16.563Z,2.54
2023-03-06T08:02:17.188Z,2.49
2023-03-06T08:03:16.708Z,2.54
2023-03-06T08:04:16.446Z,2.57
2023-03-06T08:05:17.049Z,2.64
2023-03-06T08:06:16.575Z,2.74
2023-03-06T08:07:17.115Z,2.82
2023-03-06T08:08:16.633Z,2.82
2023-03-06T08:09:17.137Z,2.79
2023-03-06T08:10:16.649Z,2.78
2023-03-06T08:11:17.132Z,2.78
2023-03-06T08:12:16.784Z,2.88
2023-03-06T08:13:17.311Z,2.94
2023-03-06T08:14:16.848Z,2.92
2023-03-06T08:15:16.388Z,2.98
2023-03-06T08:16:16.940Z,3.07
2023-03-06T08:17:16.643Z,3.19
2023-03-06T08:18:17.122Z,3.20
2023-03-06T08:19:16.644Z,3.26
2023-03-06T08:20:17.172Z,3.37
2023-03-06T08:21:16.687Z,3.39
2023-03-06T08:22:17.292Z,3.44
2023-03-06T08:23:16.779Z,3.46
2023-03-06T08:24:17.269Z,3.46
2023-03-06T08:25:16.758Z,3.49
2023-03-06T08:26:17.303Z,3.49
2023-03-06T08:27:16.790Z,3.57
2023-03-06T08:28:17.268Z,3.60
2023-03-06T08:29:16.818Z,3.58
2023-03-06T08:30:16.364Z,3.58
2023-03-06T08:31:16.901Z,3.64
2023-03-06T08:32:17.232Z,3.62
2023-03-06T08:33:16.822Z,3.54
2023-03-06T08:34:16.334Z,3.53
2023-03-06T08:35:16.852Z,3.53
2023-03-06T08:36:16.369Z,3.51
2023-03-06T08:37:16.869Z,3.44
2023-03-06T08:38:16.421Z,3.44
2023-03-06T08:39:16.914Z,3.46
2023-03-06T08:40:16.373Z,3.47
2023-03-06T08:41:16.841Z,3.50
2023-03-06T08:42:16.351Z,3.53
2023-03-06T08:43:16.858Z,3.51
2023-03-06T08:44:16.385Z,3.51
2023-03-06T08:45:16.899Z,3.55
2023-03-06T08:46:16.424Z,3.58
2023-03-06T08:47:16.953Z,3.54
2023-03-06T08:48:16.449Z,3.57
2023-03-06T08:49:16.971Z,3.72
2023-03-06T08:50:16.508Z,3.77
2023-03-06T08:51:17.000Z,3.81
2023-03-06T08:52:16.814Z,4.03
2023-03-06T08:53:16.354Z,4.17
2023-03-06T08:54:16.892Z,4.13
2023-03-06T08:55:16.401Z,4.20
2023-03-06T08:56:16.907Z,4.14
2023-03-06T08:57:16.434Z,4.02
2023-03-06T08:58:16.949Z,3.99
2023-03-06T08:59:16.438Z,4.03
2023-03-06T09:00:17.025Z,4.00
2023-03-06T09:01:16.604Z,4.05
2023-03-06T09:02:16.415Z,4.06
2023-03-06T09:03:17.048Z,4.07
2023-03-06T09:04:16.574Z,4.16
2023-03-06T09:05:17.036Z,4.25
2023-03-06T09:06:16.533Z,4.13
2023-03-06T09:07:17.053Z,4.02
2023-03-06T09:08:16.536Z,4.00
2023-03-06T09:09:17.050Z,4.03
2023-03-06T09:10:16.610Z,4.00
2023-03-06T09:11:17.301Z,4.02
2023-03-06T09:12:16.680Z,4.06
2023-03-06T09:13:17.201Z,4.00
2023-03-06T09:14:16.680Z,3.99
2023-03-06T09:15:17.182Z,3.99
2023-03-06T09:16:16.720Z,3.99
2023-03-06T09:17:17.363Z,4.05
2023-03-06T09:18:16.898Z,4.03
2023-03-06T09:19:16.471Z,4.03
2023-03-06T09:20:16.970Z,4.05
2023-03-06T09:21:16.472Z,3.97
2023-03-06T09:22:17.190Z,3.85
2023-03-06T09:23:16.694Z,3.89
2023-03-06T09:24:17.201Z,3.85
2023-03-06T09:25:16.712Z,3.85
2023-03-06T09:26:17.227Z,3.85
2023-03-06T09:27:16.744Z,3.86
2023-03-06T09:28:17.236Z,3.83
2023-03-06T09:29:16.762Z,3.71
2023-03-06T09:30:17.275Z,3.79
2023-03-06T09:31:16.837Z,3.83
2023-03-06T09:32:16.637Z,3.83
2023-03-06T09:33:17.202Z,3.83
2023-03-06T09:34:16.730Z,3.83
2023-03-06T09:35:17.295Z,3.89
2023-03-06T09:36:16.880Z,3.86
2023-03-06T09:37:17.363Z,3.96
2023-03-06T09:38:16.939Z,3.97
2023-03-06T09:39:16.474Z,3.95
2023-03-06T09:40:17.006Z,3.95
2023-03-06T09:41:16.532Z,3.89
2023-03-06T09:42:17.181Z,3.88
2023-03-06T09:43:16.678Z,3.88
2023-03-06T09:44:17.175Z,3.88
2023-03-06T09:45:16.705Z,3.92
2023-03-06T09:46:17.266Z,4.06
2023-03-06T09:47:16.810Z,4.21
2023-03-06T09:48:16.307Z,4.24
2023-03-06T09:49:16.846Z,4.30
2023-03-06T09:50:16.382Z,4.20
2023-03-06T09:51:16.906Z,4.10
2023-03-06T09:52:17.245Z,4.14
2023-03-06T09:53:16.735Z,3.99
2023-03-06T09:54:17.251Z,3.96
2023-03-06T09:55:16.792Z,3.93
2023-03-06T09:56:17.379Z,4.03
2023-03-06T09:57:16.905Z,3.95
2023-03-06T09:58:16.385Z,3.95
2023-03-06T09:59:16.901Z,3.83
2023-03-06T10:00:16.430Z,3.83
2023-03-06T10:01:16.937Z,3.89
2023-03-06T10:02:16.477Z,3.93
2023-03-06T10:03:17.330Z,3.92
2023-03-06T10:04:17.118Z,3.88
2023-03-06T10:05:16.650Z,3.89
2023-03-06T10:06:17.158Z,3.97
2023-03-06T10:07:16.660Z,3.89
2023-03-06T10:08:17.192Z,3.85
2023-03-06T10:09:16.706Z,3.81
2023-03-06T10:10:17.218Z,3.86
2023-03-06T10:11:16.711Z,3.86
2023-03-06T10:12:16.828Z,3.86
2023-03-06T10:13:16.309Z,3.85
2023-03-06T10:14:16.819Z,3.82
2023-03-06T10:15:16.400Z,3.77
2023-03-06T10:16:17.047Z,3.75
2023-03-06T10:17:16.750Z,3.67
2023-03-06T10:18:17.281Z,3.69
2023-03-06T10:19:16.820Z,3.54
2023-03-06T10:20:16.349Z,3.57
2023-03-06T10:21:19.173Z,3.67
2023-03-06T10:22:17.323Z,3.69
2023-03-06T10:24:16.910Z,3.62
2023-03-06T10:25:16.398Z,3.62
2023-03-06T10:26:17.014Z,3.64
2023-03-06T10:27:16.693Z,3.67
2023-03-06T10:28:16.410Z,3.64
2023-03-06T10:29:16.927Z,3.67
2023-03-06T10:30:16.463Z,3.67
2023-03-06T10:31:17.073Z,3.72
2023-03-06T10:32:16.707Z,3.68
2023-03-06T10:33:17.323Z,3.71
2023-03-06T10:34:16.844Z,3.72
2023-03-06T10:35:16.388Z,3.79
2023-03-06T10:36:16.899Z,3.86
2023-03-06T10:37:16.427Z,3.79
2023-03-06T10:38:16.945Z,3.82
2023-03-06T10:39:16.509Z,3.89
2023-03-06T10:40:17.007Z,3.92
2023-03-06T10:41:16.514Z,3.96
2023-03-06T10:42:17.287Z,3.97
2023-03-06T10:43:16.817Z,3.90
2023-03-06T10:44:16.334Z,4.02
2023-03-06T10:45:16.842Z,3.99
2023-03-06T10:46:16.427Z,3.95
2023-03-06T10:47:17.030Z,4.05
2023-03-06T10:48:16.571Z,4.06
2023-03-06T10:49:17.070Z,4.03
2023-03-06T10:50:16.574Z,3.95
2023-03-06T10:51:18.409Z,3.97
2023-03-06T10:52:16.443Z,4.09
2023-03-06T10:53:16.939Z,4.07
2023-03-06T10:54:16.442Z,4.20
2023-03-06T10:55:16.957Z,4.20
2023-03-06T10:56:16.456Z,4.18
2023-03-06T10:57:16.958Z,4.23
2023-03-06T10:58:16.471Z,4.28
2023-03-06T10:59:16.978Z,4.17
2023-03-06T11:00:16.518Z,4.21
2023-03-06T11:01:17.015Z,4.09
2023-03-06T11:02:16.692Z,4.17
2023-03-06T11:03:17.181Z,4.14
2023-03-06T11:04:16.720Z,4.16
2023-03-06T11:05:17.325Z,4.18
2023-03-06T11:06:16.810Z,4.33
2023-03-06T11:07:16.340Z,4.48
2023-03-06T11:08:16.848Z,4.52
2023-03-06T11:09:16.348Z,4.47
2023-03-06T11:10:16.843Z,4.48
2023-03-06T11:11:20.324Z,4.50
2023-03-06T11:12:16.589Z,4.34
2023-03-06T11:13:17.077Z,4.44
2023-03-06T11:14:16.589Z,4.44
2023-03-06T11:15:17.120Z,4.55
2023-03-06T11:16:16.654Z,4.64
2023-03-06T11:17:17.194Z,4.50
2023-03-06T11:18:16.720Z,4.48
2023-03-06T11:19:17.220Z,4.41
2023-03-06T11:20:16.702Z,4.54
2023-03-06T11:21:17.250Z,4.55
2023-03-06T11:22:16.826Z,4.48
2023-03-06T11:23:16.349Z,4.52
2023-03-06T11:24:16.859Z,4.52
2023-03-06T11:25:16.336Z,4.50
2023-03-06T11:26:16.844Z,4.59
2023-03-06T11:27:16.458Z,4.72
2023-03-06T11:28:16.967Z,4.72
2023-03-06T11:29:16.495Z,4.79
2023-03-06T11:30:16.317Z,4.82
2023-03-06T11:31:16.841Z,4.83
2023-03-06T11:32:16.372Z,4.89
2023-03-06T11:33:17.634Z,5.10
2023-03-06T11:34:16.534Z,5.18
2023-03-06T11:35:17.029Z,5.08
2023-03-06T11:36:16.532Z,5.00
2023-03-06T11:37:17.037Z,5.03
2023-03-06T11:38:16.535Z,5.06
2023-03-06T11:39:17.034Z,5.17
2023-03-06T11:40:16.528Z,5.31
2023-03-06T11:41:17.032Z,5.39
2023-03-06T11:42:17.036Z,5.52
2023-03-06T11:43:16.550Z,5.69
2023-03-06T11:44:17.046Z,5.75
2023-03-06T11:45:16.546Z,5.83
2023-03-06T11:46:17.087Z,5.77
2023-03-06T11:47:16.675Z,5.68
2023-03-06T11:48:17.167Z,5.66
2023-03-06T11:49:16.720Z,5.76
2023-03-06T11:50:17.331Z,5.83
2023-03-06T11:51:16.901Z,5.75
2023-03-06T11:52:17.088Z,5.63
2023-03-06T11:53:16.577Z,5.46
2023-03-06T11:54:17.063Z,5.65
2023-03-06T11:55:16.589Z,5.65
2023-03-06T11:56:17.354Z,5.70
2023-03-06T11:57:16.883Z,5.69
2023-03-06T11:58:16.373Z,5.70
2023-03-06T11:59:16.871Z,5.62
2023-03-06T12:00:16.399Z,5.43
2023-03-06T12:01:17.009Z,5.48
2023-03-06T12:02:17.200Z,5.51
2023-03-06T12:03:16.717Z,5.58
2023-03-06T12:04:17.208Z,5.72
2023-03-06T12:05:16.732Z,5.80
2023-03-06T12:06:17.299Z,5.76
2023-03-06T12:07:16.849Z,5.69
2023-03-06T12:08:16.339Z,5.68
2023-03-06T12:09:16.844Z,5.30
2023-03-06T12:10:16.389Z,5.30
2023-03-06T12:13:17.102Z,5.58
2023-03-06T12:14:16.596Z,5.59
2023-03-06T12:15:17.101Z,5.45
2023-03-06T12:16:16.592Z,5.45
2023-03-06T12:17:17.086Z,5.51
2023-03-06T12:18:16.582Z,5.63
2023-03-06T12:19:17.087Z,5.43
2023-03-06T12:20:16.581Z,5.35
2023-03-06T12:21:17.094Z,5.34
2023-03-06T12:22:16.494Z,5.46
2023-03-06T12:23:16.984Z,5.43
2023-03-06T12:24:16.471Z,5.51
2023-03-06T12:25:16.987Z,5.42
2023-03-06T12:26:16.471Z,5.42
2023-03-06T12:27:16.971Z,5.51
2023-03-06T12:28:16.496Z,5.52
2023-03-06T12:29:17.024Z,5.45
2023-03-06T12:30:16.485Z,5.59
2023-03-06T12:31:16.974Z,5.57
2023-03-06T12:32:16.535Z,5.38
2023-03-06T12:33:16.362Z,5.35
2023-03-06T12:34:16.854Z,5.45
2023-03-06T12:35:16.362Z,5.55
2023-03-06T12:36:17.066Z,5.58
2023-03-06T12:37:16.590Z,5.58
2023-03-06T12:38:17.159Z,5.55
2023-03-06T12:39:16.694Z,5.58
2023-03-06T12:40:17.409Z,5.49
2023-03-06T12:41:16.521Z,5.48
2023-03-06T12:42:22.854Z,5.58
2023-03-06T12:43:17.224Z,5.51
2023-03-06T12:44:16.775Z,5.48
2023-03-06T12:45:17.273Z,5.55
2023-03-06T12:46:16.864Z,5.57
2023-03-06T12:47:16.417Z,5.52
2023-03-06T12:48:16.898Z,5.59
2023-03-06T12:49:23.165Z,5.57
2023-03-06T12:50:17.264Z,5.69
2023-03-06T12:51:16.771Z,5.76
2023-03-06T12:52:18.685Z,5.87
2023-03-06T12:53:16.988Z,5.86
2023-03-06T12:54:16.474Z,5.86
2023-03-06T12:55:16.974Z,5.89
2023-03-06T12:56:16.481Z,5.79
2023-03-06T12:58:17.085Z,6.00
2023-03-06T12:59:16.562Z,6.14
2023-03-06T13:00:17.091Z,5.94
2023-03-06T13:01:16.603Z,5.89
2023-03-06T13:02:17.139Z,5.82
2023-03-06T13:03:16.710Z,5.62
2023-03-06T13:04:17.222Z,5.58
2023-03-06T13:05:16.762Z,5.68
2023-03-06T13:06:17.464Z,5.76
2023-03-06T13:07:16.969Z,5.73
2023-03-06T13:08:16.470Z,5.65
2023-03-06T13:09:16.983Z,5.61
2023-03-06T13:10:16.503Z,5.46
2023-03-06T13:11:17.046Z,5.34
2023-03-06T13:12:17.285Z,5.37
2023-03-06T13:13:16.772Z,5.49
2023-03-06T13:14:17.312Z,5.55
2023-03-06T13:15:16.794Z,5.62
2023-03-06T13:16:17.298Z,5.77
2023-03-06T13:17:16.818Z,5.79
2023-03-06T13:18:17.289Z,5.89
2023-03-06T13:19:16.804Z,6.10
2023-03-06T13:20:17.311Z,5.90
2023-03-06T13:21:16.789Z,5.80
2023-03-06T13:22:16.965Z,5.63